Time;durP1;ratioP1;P1;durP2;ratioP2;P2;SDS_P1;SDS_P2;PMS_P1;PMS_P2;Temp;Humidity;BMP_temperature;BMP_pressure;BME280_temperature;BME280_humidity;BME280_pressure;Samples;Min_cycle;Max_cycle;Signal;HPM_P1;HPM_P2
2022/07/22 00:00:13;;;;;;;2.67;2.20;;;18.00;99.90;;;;;;5051453;28;20398;-76
2022/07/22 00:02:57;;;;;;;2.70;2.45;;;17.80;99.90;;;;;;5050984;28;20574;-75
2022/07/22 00:05:41;;;;;;;3.85;2.35;;;17.90;99.90;;;;;;5047376;28;20462;-76
2022/07/22 00:08:26;;;;;;;3.75;2.20;;;17.90;99.90;;;;;;5048268;28;20473;-76
2022/07/22 00:11:10;;;;;;;4.25;2.33;;;17.80;99.90;;;;;;5052710;28;20478;-76
2022/07/22 00:13:54;;;;;;;3.40;2.63;;;17.80;99.90;;;;;;5045908;28;20819;-75
2022/07/22 00:16:38;;;;;;;3.07;2.53;;;17.90;99.90;;;;;;5044103;28;20413;-75
2022/07/22 00:19:24;;;;;;;5.72;2.60;;;17.80;99.90;;;;;;5054185;28;20982;-76
2022/07/22 00:22:08;;;;;;;6.63;2.80;;;17.80;99.90;;;;;;5045707;28;20428;-76
2022/07/22 00:24:52;;;;;;;3.43;2.37;;;17.80;99.90;;;;;;5046527;28;20420;-75
2022/07/22 00:27:36;;;;;;;4.73;2.50;;;17.80;99.90;;;;;;5054827;28;20405;-75
2022/07/22 00:30:21;;;;;;;4.40;2.63;;;17.70;99.90;;;;;;5049356;28;20407;-75
2022/07/22 00:33:05;;;;;;;6.65;2.67;;;17.70;99.90;;;;;;5042197;28;20497;-75
2022/07/22 00:35:49;;;;;;;5.60;2.75;;;17.70;99.90;;;;;;5048112;28;20404;-75
2022/07/22 00:38:33;;;;;;;5.15;2.58;;;17.60;99.90;;;;;;5043585;28;20404;-76
2022/07/22 00:41:17;;;;;;;6.10;2.78;;;17.50;99.90;;;;;;5053677;28;20412;-75
2022/07/22 00:44:05;;;;;;;6.22;2.90;;;17.50;99.90;;;;;;5047248;28;20412;-76
2022/07/22 00:46:50;;;;;;;6.82;2.70;;;17.50;99.90;;;;;;5052171;28;20512;-75
2022/07/22 00:49:34;;;;;;;5.30;2.50;;;17.50;99.90;;;;;;5046647;28;20539;-75
2022/07/22 00:52:22;;;;;;;6.43;2.50;;;17.40;99.90;;;;;;5037853;28;20424;-75
2022/07/22 00:55:07;;;;;;;5.25;2.88;;;17.50;99.90;;;;;;5042116;28;20465;-75
2022/07/22 00:57:51;;;;;;;6.97;2.90;;;17.50;99.90;;;;;;5048606;28;20472;-76
2022/07/22 01:00:35;;;;;;;4.00;2.50;;;17.50;99.90;;;;;;5045948;28;20417;-76
2022/07/22 01:03:20;;;;;;;6.57;2.67;;;17.40;99.90;;;;;;5039762;28;20404;-76
2022/07/22 01:06:04;;;;;;;5.30;2.63;;;17.40;99.90;;;;;;5055062;28;20400;-76
2022/07/22 01:08:49;;;;;;;6.18;2.50;;;17.40;99.90;;;;;;5049345;28;20400;-76
2022/07/22 01:11:33;;;;;;;4.55;2.40;;;17.30;99.90;;;;;;5048191;28;20478;-76
2022/07/22 01:14:17;;;;;;;5.22;2.42;;;17.40;99.90;;;;;;5039828;28;20414;-75
2022/07/22 01:17:02;;;;;;;5.50;2.80;;;17.40;99.90;;;;;;5047598;28;20501;-76
2022/07/22 01:19:46;;;;;;;8.63;3.40;;;17.10;99.90;;;;;;5037435;28;20471;-75
2022/07/22 01:22:31;;;;;;;5.90;3.00;;;17.30;99.90;;;;;;5051324;28;20419;-76
2022/07/22 01:25:15;;;;;;;5.47;3.20;;;17.30;99.90;;;;;;5048637;28;20422;-75
2022/07/22 01:27:59;;;;;;;8.38;3.05;;;17.20;99.90;;;;;;5059340;28;20399;-76
2022/07/22 01:30:43;;;;;;;9.48;3.10;;;17.30;99.90;;;;;;5048653;28;20451;-76
2022/07/22 01:33:28;;;;;;;5.88;3.20;;;17.30;99.90;;;;;;5045574;28;20402;-76
2022/07/22 01:36:12;;;;;;;7.45;2.85;;;17.20;99.90;;;;;;5050669;28;20398;-75
2022/07/22 01:38:56;;;;;;;8.35;2.78;;;17.30;99.90;;;;;;5054169;28;20511;-75
2022/07/22 01:41:40;;;;;;;6.23;2.57;;;17.20;99.90;;;;;;5059449;28;20920;-76
2022/07/22 01:44:24;;;;;;;5.95;2.53;;;17.20;99.90;;;;;;5050086;28;20405;-76
2022/07/22 01:47:09;;;;;;;8.98;2.55;;;17.20;99.90;;;;;;5048082;28;20424;-76
2022/07/22 01:49:53;;;;;;;5.78;2.55;;;17.50;99.90;;;;;;5050555;28;20427;-76
2022/07/22 01:52:38;;;;;;;5.60;2.55;;;17.20;99.90;;;;;;5046964;28;20416;-76
2022/07/22 01:55:22;;;;;;;8.00;2.80;;;17.30;99.90;;;;;;5039483;28;20466;-76
2022/07/22 01:58:07;;;;;;;7.47;2.63;;;17.20;99.90;;;;;;5046554;28;20787;-76
2022/07/22 02:00:52;;;;;;;8.95;2.80;;;17.40;99.90;;;;;;5043821;28;20428;-75
2022/07/22 02:03:37;;;;;;;7.13;2.65;;;17.20;99.90;;;;;;5048510;28;20488;-75
2022/07/22 02:06:21;;;;;;;6.75;2.80;;;17.20;99.90;;;;;;5042360;28;20461;-75
2022/07/22 02:09:05;;;;;;;6.68;2.40;;;17.20;99.90;;;;;;5053447;28;20408;-76
2022/07/22 02:11:49;;;;;;;5.72;2.67;;;17.20;99.90;;;;;;5046158;28;20491;-75
2022/07/22 02:14:34;;;;;;;8.48;2.88;;;17.20;99.90;;;;;;5042437;28;20530;-75
2022/07/22 02:17:18;;;;;;;6.50;2.92;;;17.20;99.90;;;;;;5047470;28;20432;-75
2022/07/22 02:20:03;;;;;;;9.02;3.22;;;17.20;99.90;;;;;;5044420;28;20405;-76
2022/07/22 02:22:47;;;;;;;6.20;3.20;;;17.20;99.90;;;;;;5040860;28;20507;-75
2022/07/22 02:25:33;;;;;;;6.82;3.10;;;17.20;99.90;;;;;;5048440;28;20452;-76
2022/07/22 02:28:17;;;;;;;6.45;2.90;;;17.10;99.90;;;;;;5042752;28;20435;-75
2022/07/22 02:31:02;;;;;;;6.68;2.60;;;17.00;99.90;;;;;;5046511;28;20428;-76
2022/07/22 02:33:47;;;;;;;4.75;2.70;;;17.10;99.90;;;;;;5045942;28;20470;-76
2022/07/22 02:36:31;;;;;;;6.38;2.40;;;17.00;99.90;;;;;;5044429;28;20461;-76
2022/07/22 02:39:15;;;;;;;4.65;2.38;;;17.20;99.90;;;;;;5042264;28;20468;-76
2022/07/22 02:41:59;;;;;;;5.55;2.22;;;17.00;99.90;;;;;;5037874;28;20420;-75
2022/07/22 02:44:43;;;;;;;5.40;2.38;;;17.00;99.90;;;;;;5051369;28;20990;-75
2022/07/22 02:47:27;;;;;;;4.38;2.38;;;17.00;99.90;;;;;;5047590;28;20459;-75
2022/07/22 02:50:11;;;;;;;6.47;2.50;;;17.00;99.90;;;;;;5038629;28;20423;-77
2022/07/22 02:52:55;;;;;;;5.43;2.45;;;17.00;99.90;;;;;;5047226;28;20442;-75
2022/07/22 02:55:40;;;;;;;7.32;2.65;;;16.90;99.90;;;;;;5038931;28;20420;-76
2022/07/22 02:58:24;;;;;;;5.70;2.63;;;16.90;99.90;;;;;;5045040;28;20412;-76
2022/07/22 03:01:08;;;;;;;6.20;2.47;;;16.90;99.90;;;;;;5051255;28;20461;-76
2022/07/22 03:03:52;;;;;;;6.35;2.53;;;16.90;99.90;;;;;;5045823;28;20418;-76
2022/07/22 03:06:36;;;;;;;4.25;2.25;;;16.90;99.90;;;;;;5040853;28;20409;-76
2022/07/22 03:09:21;;;;;;;5.18;2.25;;;16.90;99.90;;;;;;5046806;28;20518;-76
2022/07/22 03:12:05;;;;;;;5.75;2.20;;;16.80;99.90;;;;;;5047093;28;20479;-76
2022/07/22 03:14:49;;;;;;;5.30;2.20;;;16.80;99.90;;;;;;5045866;28;20501;-75
2022/07/22 03:17:35;;;;;;;6.23;2.33;;;16.80;99.90;;;;;;5043309;28;21027;-76
2022/07/22 03:20:19;;;;;;;7.25;2.58;;;16.70;99.90;;;;;;5049091;28;20453;-76
2022/07/22 03:23:03;;;;;;;6.20;2.40;;;16.80;99.90;;;;;;5049398;28;20555;-76
2022/07/22 03:25:47;;;;;;;6.68;2.38;;;16.80;99.90;;;;;;5045714;28;20416;-76
2022/07/22 03:28:32;;;;;;;6.43;2.53;;;16.80;99.90;;;;;;5049491;28;20432;-76
2022/07/22 03:31:16;;;;;;;7.85;2.60;;;16.80;99.90;;;;;;5043068;28;20463;-76
2022/07/22 03:34:00;;;;;;;9.43;2.90;;;16.80;99.90;;;;;;5042481;28;20416;-76
2022/07/22 03:36:45;;;;;;;7.68;3.10;;;16.80;99.90;;;;;;5038612;28;20918;-76
2022/07/22 03:39:29;;;;;;;6.72;2.97;;;16.80;99.90;;;;;;5047563;28;20899;-75
2022/07/22 03:42:13;;;;;;;8.68;3.20;;;16.70;99.90;;;;;;5044947;28;20442;-76
2022/07/22 03:44:57;;;;;;;5.40;3.30;;;16.70;99.90;;;;;;5045921;28;20405;-76
2022/07/22 03:47:42;;;;;;;7.17;3.27;;;16.70;99.90;;;;;;5043361;28;20843;-76
2022/07/22 03:50:26;;;;;;;6.83;3.20;;;16.70;99.90;;;;;;5046868;28;20507;-76
2022/07/22 03:53:10;;;;;;;5.13;3.10;;;16.70;99.90;;;;;;5051377;28;20560;-76
2022/07/22 03:55:54;;;;;;;4.80;2.70;;;16.70;99.90;;;;;;5051808;28;20467;-75
2022/07/22 03:58:38;;;;;;;6.37;3.00;;;16.70;99.90;;;;;;5044787;28;20508;-76
2022/07/22 04:01:22;;;;;;;6.20;2.60;;;16.70;99.90;;;;;;5052230;28;20841;-76
2022/07/22 04:04:06;;;;;;;9.20;2.90;;;16.60;99.90;;;;;;5047318;28;20502;-75
2022/07/22 04:06:51;;;;;;;6.15;2.65;;;16.60;99.90;;;;;;5048812;28;20471;-75
2022/07/22 04:09:36;;;;;;;6.97;3.00;;;16.50;99.90;;;;;;5041327;28;20428;-76
2022/07/22 04:12:20;;;;;;;6.82;2.60;;;16.60;99.90;;;;;;5046420;28;20406;-76
2022/07/22 04:15:06;;;;;;;8.23;2.95;;;16.60;99.90;;;;;;5048965;28;20782;-76
2022/07/22 04:17:51;;;;;;;6.97;2.88;;;16.60;99.90;;;;;;5038225;28;20479;-76
2022/07/22 04:20:35;;;;;;;7.18;3.10;;;16.60;99.90;;;;;;5051280;28;20450;-76
2022/07/22 04:23:19;;;;;;;7.50;3.00;;;16.60;99.90;;;;;;5052701;28;20402;-75
2022/07/22 04:26:03;;;;;;;8.63;3.03;;;16.70;99.90;;;;;;5038276;28;20535;-75
2022/07/22 04:28:47;;;;;;;10.68;2.97;;;16.60;99.90;;;;;;5044411;28;20462;-76
2022/07/22 04:31:32;;;;;;;8.73;2.92;;;16.70;99.90;;;;;;5044658;28;20460;-76
2022/07/22 04:34:16;;;;;;;7.03;3.10;;;16.70;99.90;;;;;;5042034;28;20431;-75
2022/07/22 04:37:00;;;;;;;9.70;3.40;;;16.70;99.90;;;;;;5047267;28;20497;-75
2022/07/22 04:39:44;;;;;;;8.65;3.28;;;16.70;99.90;;;;;;5042854;28;20438;-75
2022/07/22 04:42:28;;;;;;;8.85;3.60;;;16.70;99.90;;;;;;5037786;28;20416;-75
2022/07/22 04:45:12;;;;;;;7.72;3.55;;;16.70;99.90;;;;;;5040375;28;20481;-76
2022/07/22 04:47:56;;;;;;;10.40;4.20;;;16.70;99.90;;;;;;5041964;28;20420;-75
2022/07/22 04:50:41;;;;;;;9.90;4.22;;;16.70;99.90;;;;;;5039985;28;20422;-76
2022/07/22 04:53:24;;;;;;;10.63;4.38;;;16.70;99.90;;;;;;5043952;28;20418;-76
2022/07/22 04:56:09;;;;;;;13.38;4.60;;;16.70;99.90;;;;;;5044596;28;20415;-76
2022/07/22 04:58:53;;;;;;;13.30;4.70;;;16.70;99.90;;;;;;5045497;28;20412;-75
2022/07/22 05:01:38;;;;;;;11.75;4.25;;;16.70;99.90;;;;;;5055651;28;20406;-75
2022/07/22 05:04:22;;;;;;;10.80;4.77;;;16.70;99.90;;;;;;5045071;28;20477;-75
2022/07/22 05:07:06;;;;;;;9.93;4.67;;;16.70;99.90;;;;;;5048989;28;20410;-75
2022/07/22 05:09:50;;;;;;;13.15;4.85;;;16.70;99.90;;;;;;5048902;28;20400;-75
2022/07/22 05:12:35;;;;;;;12.80;4.97;;;16.70;99.90;;;;;;5046391;28;20437;-75
2022/07/22 05:15:19;;;;;;;13.45;5.50;;;16.70;99.90;;;;;;5047994;28;20447;-75
2022/07/22 05:18:03;;;;;;;14.20;5.65;;;16.70;99.90;;;;;;5040596;28;20468;-75
2022/07/22 05:20:48;;;;;;;15.02;5.80;;;16.70;99.90;;;;;;5045097;28;20420;-75
2022/07/22 05:23:32;;;;;;;10.05;5.00;;;16.70;99.90;;;;;;5040873;28;20409;-75
2022/07/22 05:26:16;;;;;;;13.90;5.63;;;16.80;99.90;;;;;;5043763;28;20436;-74
2022/07/22 05:29:00;;;;;;;11.32;5.65;;;16.80;99.90;;;;;;5049650;28;20485;-75
2022/07/22 05:31:44;;;;;;;13.57;5.43;;;16.80;99.90;;;;;;5047604;28;20447;-75
2022/07/22 05:34:28;;;;;;;12.77;5.55;;;16.80;99.90;;;;;;5045783;28;20413;-75
2022/07/22 05:37:13;;;;;;;13.50;5.57;;;16.80;99.90;;;;;;5043253;28;20537;-74
2022/07/22 05:39:57;;;;;;;15.93;6.00;;;16.90;99.90;;;;;;5042276;28;20461;-76
2022/07/22 05:42:41;;;;;;;13.60;5.72;;;16.90;99.90;;;;;;5043162;28;20395;-76
2022/07/22 05:45:25;;;;;;;13.35;6.00;;;16.90;99.90;;;;;;5047382;28;20406;-76
2022/07/22 05:48:10;;;;;;;12.13;5.63;;;16.90;99.90;;;;;;5041385;28;20426;-76
2022/07/22 05:50:54;;;;;;;14.13;6.28;;;16.90;99.90;;;;;;5045664;28;20436;-76
2022/07/22 05:53:41;;;;;;;13.27;5.30;;;16.90;99.90;;;;;;5049377;28;22360;-76
2022/07/22 05:56:26;;;;;;;14.13;5.22;;;16.90;99.90;;;;;;5040826;28;20410;-75
2022/07/22 05:59:10;;;;;;;11.80;5.30;;;16.90;99.90;;;;;;5052897;28;20453;-76
2022/07/22 06:01:54;;;;;;;11.38;4.55;;;17.00;99.90;;;;;;5046904;28;20469;-76
2022/07/22 06:04:38;;;;;;;13.23;5.38;;;17.00;99.90;;;;;;5046612;28;20738;-76
2022/07/22 06:07:22;;;;;;;17.17;5.38;;;16.90;99.90;;;;;;5041468;28;20412;-75
2022/07/22 06:10:07;;;;;;;14.18;4.55;;;17.00;99.90;;;;;;5055572;28;20450;-75
2022/07/22 06:12:51;;;;;;;12.03;4.33;;;17.10;99.90;;;;;;5050381;28;20459;-75
2022/07/22 06:15:35;;;;;;;15.02;5.65;;;17.00;99.90;;;;;;5048010;28;20507;-75
2022/07/22 06:18:20;;;;;;;24.77;6.07;;;17.00;99.90;;;;;;5044087;28;20386;-75
2022/07/22 06:21:07;;;;;;;16.23;5.18;;;17.00;99.90;;;;;;5046067;28;20431;-75
2022/07/22 06:23:51;;;;;;;11.82;4.38;;;17.10;99.90;;;;;;5046689;28;20507;-75
2022/07/22 06:26:35;;;;;;;12.02;4.00;;;17.10;99.90;;;;;;5043721;28;20478;-75
2022/07/22 06:29:19;;;;;;;12.55;3.50;;;17.10;99.90;;;;;;5047323;28;20456;-75
2022/07/22 06:32:04;;;;;;;13.15;3.92;;;17.10;99.90;;;;;;5050608;28;20413;-75
2022/07/22 06:34:48;;;;;;;13.23;3.55;;;17.10;99.90;;;;;;5051442;28;20411;-75
2022/07/22 06:37:32;;;;;;;11.35;3.72;;;17.10;99.90;;;;;;5047594;28;20446;-75
2022/07/22 06:40:16;;;;;;;10.75;3.83;;;17.30;99.90;;;;;;5047149;28;20423;-75
2022/07/22 06:43:01;;;;;;;9.27;3.80;;;17.20;99.90;;;;;;5051166;28;20417;-75
2022/07/22 06:45:45;;;;;;;11.02;3.70;;;17.30;99.90;;;;;;5051005;28;20500;-75
2022/07/22 06:48:29;;;;;;;9.18;3.58;;;17.20;99.90;;;;;;5048235;28;20410;-75
2022/07/22 06:51:13;;;;;;;7.28;3.70;;;17.20;99.90;;;;;;5057413;28;20501;-75
2022/07/22 06:53:57;;;;;;;12.27;3.55;;;17.30;99.90;;;;;;5042480;28;20422;-75
2022/07/22 06:56:41;;;;;;;11.40;3.50;;;17.30;99.90;;;;;;5048682;28;20420;-75
2022/07/22 06:59:25;;;;;;;12.35;3.80;;;17.40;99.90;;;;;;5045356;28;20426;-75
2022/07/22 07:02:09;;;;;;;9.60;3.17;;;17.40;99.90;;;;;;5063244;28;20430;-75
2022/07/22 07:04:54;;;;;;;8.93;3.55;;;17.40;99.90;;;;;;5056349;28;20411;-75
2022/07/22 07:07:38;;;;;;;10.70;3.60;;;17.50;99.90;;;;;;5056486;28;20598;-75
2022/07/22 07:10:22;;;;;;;11.30;3.80;;;17.50;99.90;;;;;;5056734;28;20405;-75
2022/07/22 07:13:06;;;;;;;12.85;3.88;;;17.50;99.90;;;;;;5054474;28;20422;-75
2022/07/22 07:15:51;;;;;;;14.57;3.65;;;17.50;99.90;;;;;;5051644;28;20405;-75
2022/07/22 07:18:35;;;;;;;9.23;3.10;;;17.50;99.90;;;;;;5060764;28;20415;-75
2022/07/22 07:21:19;;;;;;;9.48;3.10;;;17.50;99.90;;;;;;5046222;28;20935;-75
2022/07/22 07:24:04;;;;;;;10.02;2.40;;;17.60;99.90;;;;;;5057949;28;20388;-75
2022/07/22 07:26:48;;;;;;;6.20;2.55;;;17.70;99.90;;;;;;5051027;28;20478;-75
2022/07/22 07:29:32;;;;;;;8.15;2.60;;;17.70;99.90;;;;;;5061585;28;20422;-75
2022/07/22 07:32:16;;;;;;;12.43;2.90;;;17.70;99.90;;;;;;5054496;28;20417;-75
2022/07/22 07:35:01;;;;;;;7.63;2.77;;;17.70;99.90;;;;;;5053461;28;20455;-74
2022/07/22 07:37:45;;;;;;;9.07;3.25;;;17.60;99.90;;;;;;5060281;28;20469;-76
2022/07/22 07:40:29;;;;;;;8.68;2.55;;;17.70;99.90;;;;;;5048247;28;20408;-75
2022/07/22 07:43:13;;;;;;;11.65;2.80;;;17.70;99.90;;;;;;5045297;28;20391;-75
2022/07/22 07:45:58;;;;;;;6.90;2.53;;;17.80;99.90;;;;;;5049998;28;20424;-75
2022/07/22 07:48:42;;;;;;;7.95;2.58;;;17.70;99.90;;;;;;5047476;28;20456;-73
2022/07/22 07:51:26;;;;;;;10.20;2.63;;;17.70;99.90;;;;;;5048951;28;20484;-74
2022/07/22 07:54:10;;;;;;;8.00;2.53;;;17.70;99.90;;;;;;5040110;28;20441;-76
2022/07/22 07:56:54;;;;;;;22.77;4.03;;;17.70;99.90;;;;;;5045003;28;20455;-74
2022/07/22 07:59:40;;;;;;;9.43;2.45;;;17.70;99.90;;;;;;5043490;28;20543;-76
2022/07/22 08:02:24;;;;;;;8.15;2.22;;;17.60;99.90;;;;;;5045843;28;20430;-76
2022/07/22 08:05:09;;;;;;;8.45;2.25;;;17.50;99.90;;;;;;5049498;28;20415;-77
2022/07/22 08:07:53;;;;;;;6.43;2.15;;;17.60;99.90;;;;;;5048574;28;20446;-75
2022/07/22 08:10:37;;;;;;;6.72;2.05;;;17.60;99.90;;;;;;5050042;28;20403;-74
2022/07/22 08:13:21;;;;;;;7.68;2.03;;;17.70;99.90;;;;;;5040999;28;20995;-74
2022/07/22 08:16:05;;;;;;;7.07;2.80;;;17.90;99.90;;;;;;5051112;28;20489;-75
2022/07/22 08:18:49;;;;;;;10.85;2.67;;;17.90;99.90;;;;;;5054314;28;20402;-75
2022/07/22 08:21:33;;;;;;;6.05;2.30;;;18.00;99.90;;;;;;5052064;28;20429;-74
2022/07/22 08:24:17;;;;;;;12.68;2.67;;;18.00;99.90;;;;;;5038886;28;20438;-74
2022/07/22 08:27:02;;;;;;;7.20;2.42;;;18.10;99.90;;;;;;5044210;28;20497;-74
2022/07/22 08:29:46;;;;;;;4.68;2.15;;;18.20;99.90;;;;;;5047866;28;20420;-74
2022/07/22 08:32:30;;;;;;;6.88;2.33;;;18.20;99.90;;;;;;5041811;28;20417;-74
2022/07/22 08:35:14;;;;;;;5.40;2.00;;;18.10;99.90;;;;;;5040971;28;20465;-74
2022/07/22 08:37:59;;;;;;;9.00;2.13;;;18.20;99.90;;;;;;5050997;28;20451;-74
2022/07/22 08:40:43;;;;;;;8.80;2.10;;;18.20;99.90;;;;;;5045003;28;20519;-74
2022/07/22 08:43:27;;;;;;;6.47;2.30;;;18.20;99.90;;;;;;5048953;28;20903;-74
2022/07/22 08:46:11;;;;;;;7.70;2.20;;;18.30;99.90;;;;;;5049526;28;20415;-74
2022/07/22 08:48:56;;;;;;;7.53;1.92;;;18.30;99.90;;;;;;5049648;28;20440;-74
2022/07/22 08:51:40;;;;;;;8.40;1.92;;;18.30;99.90;;;;;;5048587;28;20506;-74
2022/07/22 08:54:24;;;;;;;6.63;1.90;;;18.30;99.90;;;;;;5043962;28;20406;-74
2022/07/22 08:57:08;;;;;;;5.95;2.30;;;18.30;99.90;;;;;;5053159;28;20406;-74
2022/07/22 08:59:55;;;;;;;6.60;2.15;;;18.40;99.90;;;;;;5039180;28;20412;-74
2022/07/22 09:02:41;;;;;;;9.40;2.15;;;18.40;99.90;;;;;;5059918;28;20540;-73
2022/07/22 09:05:32;;;;;;;6.10;2.35;;;18.30;99.90;;;;;;5046444;28;20404;-74
2022/07/22 09:08:17;;;;;;;6.75;1.92;;;18.40;99.90;;;;;;5047888;28;20418;-74
2022/07/22 09:11:16;;;;;;;6.03;2.00;;;18.40;99.90;;;;;;5042193;28;20441;-74
2022/07/22 09:14:01;;;;;;;8.38;2.30;;;18.40;99.90;;;;;;5047113;28;20404;-74
2022/07/22 09:16:47;;;;;;;4.07;1.70;;;18.50;99.90;;;;;;5051671;28;20483;-76
2022/07/22 09:19:33;;;;;;;6.45;2.40;;;18.60;99.90;;;;;;5047067;28;20409;-76
2022/07/22 09:22:38;;;;;;;5.57;2.20;;;18.60;99.90;;;;;;5047614;28;20389;-76
2022/07/22 09:25:30;;;;;;;6.18;2.35;;;18.70;99.90;;;;;;5050866;28;20527;-76
2022/07/22 09:28:18;;;;;;;7.80;2.20;;;18.70;99.90;;;;;;5045372;28;20449;-76
2022/07/22 09:31:02;;;;;;;7.25;2.35;;;18.70;99.90;;;;;;5038588;28;20412;-75
2022/07/22 09:33:47;;;;;;;4.25;1.77;;;18.80;99.90;;;;;;5052562;28;20407;-79
2022/07/22 09:36:48;;;;;;;4.57;1.88;;;18.80;99.90;;;;;;5039915;28;20452;-75
2022/07/22 09:39:33;;;;;;;5.07;1.88;;;18.80;99.90;;;;;;5054983;28;20398;-75
2022/07/22 09:42:17;;;;;;;6.53;2.13;;;18.80;99.90;;;;;;5043581;28;20439;-75
2022/07/22 09:45:02;;;;;;;8.25;2.38;;;18.80;99.90;;;;;;5041129;28;20432;-75
2022/07/22 09:47:48;;;;;;;5.93;2.13;;;18.80;99.90;;;;;;5054539;28;20384;-75
2022/07/22 09:50:34;;;;;;;7.68;2.20;;;18.70;99.90;;;;;;5041766;28;20424;-75
2022/07/22 09:53:22;;;;;;;7.90;2.10;;;18.70;99.90;;;;;;5045058;28;20424;-75
2022/07/22 09:56:07;;;;;;;5.00;2.10;;;18.70;99.90;;;;;;5056151;28;20434;-76
2022/07/22 09:58:50;;;;;;;5.78;2.03;;;18.70;99.90;;;;;;5045719;28;20398;-75
2022/07/22 10:01:36;;;;;;;6.57;2.13;;;18.70;99.90;;;;;;5046087;28;20470;-75
2022/07/22 10:04:23;;;;;;;7.07;2.20;;;18.80;99.90;;;;;;5043658;28;20408;-76
2022/07/22 10:07:07;;;;;;;6.93;2.63;;;18.80;99.90;;;;;;5049341;28;21003;-75
2022/07/22 10:09:53;;;;;;;5.03;2.28;;;18.90;99.90;;;;;;5044467;28;20422;-75
2022/07/22 10:12:38;;;;;;;7.38;2.13;;;18.90;99.90;;;;;;5044160;28;20416;-75
2022/07/22 10:15:24;;;;;;;6.90;2.05;;;18.90;99.90;;;;;;5046760;28;20462;-73
2022/07/22 10:18:14;;;;;;;8.85;2.45;;;18.80;99.90;;;;;;5051332;28;20414;-74
2022/07/22 10:21:07;;;;;;;7.68;2.05;;;18.70;99.90;;;;;;5057537;28;20451;-74
2022/07/22 10:24:11;;;;;;;9.70;2.28;;;18.80;99.90;;;;;;5059656;28;20486;-74
2022/07/22 10:26:57;;;;;;;5.68;1.98;;;18.70;99.90;;;;;;5054684;28;20970;-74
2022/07/22 10:29:47;;;;;;;5.60;1.98;;;18.80;99.90;;;;;;5053443;28;20412;-74
2022/07/22 10:32:32;;;;;;;6.10;2.03;;;18.80;99.90;;;;;;5054365;28;20845;-74
2022/07/22 10:35:22;;;;;;;5.10;1.83;;;18.80;99.90;;;;;;5054884;28;20394;-74
2022/07/22 10:38:08;;;;;;;4.93;1.92;;;18.70;99.90;;;;;;5054567;28;20402;-74
2022/07/22 10:41:10;;;;;;;8.68;1.80;;;18.70;99.90;;;;;;5061135;28;20640;-74
2022/07/22 10:43:55;;;;;;;5.30;1.87;;;18.80;99.90;;;;;;5056416;28;20404;-74
2022/07/22 10:46:54;;;;;;;4.63;1.90;;;18.80;99.90;;;;;;5048887;28;20489;-74
2022/07/22 10:49:37;;;;;;;6.70;1.70;;;18.80;99.90;;;;;;5039587;28;20462;-74
2022/07/22 10:52:34;;;;;;;4.57;1.80;;;18.90;99.90;;;;;;5042533;28;20428;-75
2022/07/22 10:55:21;;;;;;;7.18;1.90;;;18.90;99.90;;;;;;5054631;28;20394;-74
2022/07/22 10:58:33;;;;;;;4.30;1.92;;;18.90;99.90;;;;;;5057519;28;20444;-74
2022/07/22 11:01:20;;;;;;;7.20;2.00;;;18.90;99.90;;;;;;5043943;28;20765;-74
2022/07/22 11:04:24;;;;;;;6.35;2.00;;;18.90;99.90;;;;;;5045617;28;20455;-75
2022/07/22 11:07:08;;;;;;;4.95;1.92;;;18.90;99.90;;;;;;5047213;28;20858;-75
2022/07/22 11:09:52;;;;;;;7.97;1.98;;;18.90;99.90;;;;;;5052767;28;20408;-74
2022/07/22 11:12:37;;;;;;;5.40;2.00;;;19.00;99.90;;;;;;5048138;28;20447;-75
2022/07/22 11:15:26;;;;;;;4.73;2.00;;;19.00;99.90;;;;;;5045567;28;20404;-75
2022/07/22 11:18:10;;;;;;;2.90;1.65;;;19.00;99.90;;;;;;5050642;28;20617;-74
2022/07/22 11:20:56;;;;;;;6.00;2.23;;;19.10;99.90;;;;;;5049890;28;20401;-74
2022/07/22 11:23:40;;;;;;;4.90;1.80;;;19.10;99.90;;;;;;5045086;28;20396;-74
2022/07/22 11:26:32;;;;;;;6.80;1.90;;;19.10;99.90;;;;;;5043942;28;20495;-75
2022/07/22 11:29:27;;;;;;;5.07;1.88;;;19.20;99.90;;;;;;5043036;28;20460;-74
2022/07/22 11:32:13;;;;;;;6.23;1.90;;;19.20;99.90;;;;;;5050254;28;20445;-75
2022/07/22 11:34:59;;;;;;;3.73;1.70;;;19.20;99.90;;;;;;5046067;28;20401;-76
2022/07/22 11:37:43;;;;;;;4.28;1.60;;;19.20;99.90;;;;;;5059601;28;20480;-77
2022/07/22 11:40:33;;;;;;;4.55;1.63;;;19.30;99.90;;;;;;5050341;28;20459;-76
2022/07/22 11:43:17;;;;;;;3.92;1.83;;;19.30;99.90;;;;;;5049010;28;20422;-76
2022/07/22 11:46:01;;;;;;;6.85;2.10;;;19.40;99.90;;;;;;5052516;28;20463;-76
2022/07/22 11:48:45;;;;;;;3.50;1.73;;;19.30;99.90;;;;;;5047842;28;20417;-76
2022/07/22 11:51:31;;;;;;;6.53;1.80;;;19.40;99.90;;;;;;5046220;28;20543;-76
2022/07/22 11:54:16;;;;;;;4.05;1.67;;;19.40;99.90;;;;;;5048171;28;20407;-76
2022/07/22 11:57:02;;;;;;;4.97;1.80;;;19.40;99.90;;;;;;5047480;28;20890;-77
2022/07/22 11:59:46;;;;;;;6.78;2.17;;;19.40;99.90;;;;;;5037100;28;20418;-77
2022/07/22 12:02:31;;;;;;;4.57;2.00;;;19.50;99.90;;;;;;5048123;28;20427;-77
2022/07/22 12:05:15;;;;;;;5.35;1.73;;;19.40;99.90;;;;;;5047548;28;20412;-77
2022/07/22 12:08:00;;;;;;;4.60;1.77;;;19.40;99.90;;;;;;5057139;28;20510;-76
2022/07/22 12:10:45;;;;;;;5.25;1.80;;;19.50;99.90;;;;;;5046701;28;20466;-75
2022/07/22 12:13:31;;;;;;;5.28;1.83;;;19.50;99.90;;;;;;5048415;28;20432;-75
2022/07/22 12:16:24;;;;;;;6.53;2.00;;;19.50;99.90;;;;;;5046567;28;20427;-76
2022/07/22 12:19:10;;;;;;;5.75;1.80;;;19.50;99.90;;;;;;5053527;28;20488;-76
2022/07/22 12:21:58;;;;;;;5.13;2.30;;;19.50;99.90;;;;;;5043901;28;20523;-76
2022/07/22 12:24:44;;;;;;;8.43;2.85;;;19.50;99.90;;;;;;5045904;28;20487;-75
2022/07/22 12:27:30;;;;;;;5.82;2.40;;;19.60;99.90;;;;;;5048693;28;20410;-77
2022/07/22 12:30:14;;;;;;;5.85;2.70;;;19.60;99.90;;;;;;5051033;28;20960;-77
2022/07/22 12:33:00;;;;;;;8.50;2.53;;;19.60;99.90;;;;;;5047564;28;20465;-76
2022/07/22 12:35:59;;;;;;;6.40;2.27;;;19.60;99.90;;;;;;5054253;28;20417;-77
2022/07/22 12:38:43;;;;;;;9.35;2.40;;;19.50;99.90;;;;;;5053061;28;20416;-77
2022/07/22 12:41:30;;;;;;;8.23;2.50;;;19.50;99.90;;;;;;5050951;28;20390;-77
2022/07/22 12:44:24;;;;;;;5.53;2.17;;;19.40;99.90;;;;;;5048060;28;20426;-76
2022/07/22 12:47:08;;;;;;;4.10;2.30;;;19.40;99.90;;;;;;5058101;28;20390;-76
2022/07/22 12:49:52;;;;;;;7.13;2.42;;;19.40;99.90;;;;;;5042872;28;20501;-77
2022/07/22 12:52:36;;;;;;;7.93;2.30;;;19.50;99.90;;;;;;5054293;28;20420;-76
2022/07/22 12:55:20;;;;;;;4.88;2.17;;;19.60;99.90;;;;;;5054525;28;20419;-76
2022/07/22 12:58:07;;;;;;;6.78;2.58;;;19.50;99.90;;;;;;5050560;28;20472;-76
2022/07/22 13:00:54;;;;;;;4.93;2.40;;;19.60;99.90;;;;;;5051668;28;20419;-76
2022/07/22 13:03:38;;;;;;;4.72;2.28;;;19.60;99.90;;;;;;5055060;28;20402;-76
2022/07/22 13:06:22;;;;;;;3.67;2.28;;;19.60;99.90;;;;;;5043505;28;20420;-76
2022/07/22 13:09:07;;;;;;;5.13;2.40;;;19.60;99.90;;;;;;5045035;28;20755;-76
2022/07/22 13:11:51;;;;;;;4.20;2.28;;;19.60;99.90;;;;;;5042394;28;20939;-77
2022/07/22 13:14:36;;;;;;;4.65;2.15;;;19.60;99.90;;;;;;5045405;28;20769;-77
2022/07/22 13:17:20;;;;;;;6.72;2.45;;;19.70;99.90;;;;;;5052342;28;20424;-76
2022/07/22 13:20:05;;;;;;;7.00;2.60;;;19.70;99.90;;;;;;5045414;28;20451;-76
2022/07/22 13:22:50;;;;;;;5.25;2.35;;;19.80;99.90;;;;;;5052451;28;20526;-76
2022/07/22 13:25:35;;;;;;;6.97;2.33;;;19.80;99.90;;;;;;5057723;28;20776;-76
2022/07/22 13:28:19;;;;;;;4.85;2.47;;;19.80;99.90;;;;;;5052934;28;20395;-76
2022/07/22 13:31:03;;;;;;;8.53;2.43;;;19.80;99.90;;;;;;5050860;28;20407;-77
2022/07/22 13:33:47;;;;;;;4.38;2.28;;;19.80;99.90;;;;;;5057038;28;20431;-76
2022/07/22 13:36:33;;;;;;;5.65;2.28;;;19.80;99.90;;;;;;5049865;28;20400;-76
2022/07/22 13:39:18;;;;;;;4.07;2.17;;;19.80;99.90;;;;;;5059767;28;20394;-76
2022/07/22 13:42:02;;;;;;;4.53;2.20;;;19.80;99.90;;;;;;5055999;28;20408;-76
2022/07/22 13:44:47;;;;;;;4.07;2.25;;;19.80;99.90;;;;;;5048552;28;20457;-78
2022/07/22 13:47:31;;;;;;;4.50;2.03;;;19.80;99.90;;;;;;5042964;28;20478;-76
2022/07/22 13:50:15;;;;;;;7.95;2.67;;;19.90;99.90;;;;;;5050866;28;20493;-77
2022/07/22 13:52:59;;;;;;;4.32;2.10;;;19.90;99.90;;;;;;5055174;28;20420;-77
2022/07/22 13:55:43;;;;;;;5.18;2.22;;;19.90;99.90;;;;;;5040257;28;20404;-77
2022/07/22 13:58:28;;;;;;;5.20;1.95;;;20.00;99.90;;;;;;5050353;28;20434;-77
2022/07/22 14:01:12;;;;;;;7.00;2.10;;;20.00;99.90;;;;;;5045121;28;20399;-76
2022/07/22 14:03:56;;;;;;;4.43;2.40;;;20.00;99.90;;;;;;5059147;28;20408;-76
2022/07/22 14:06:40;;;;;;;4.93;2.33;;;20.00;99.90;;;;;;5057206;28;20394;-77
2022/07/22 14:09:24;;;;;;;5.68;2.40;;;20.00;99.90;;;;;;5053492;28;20391;-77
2022/07/22 14:12:09;;;;;;;4.28;2.10;;;20.00;99.90;;;;;;5045183;28;20428;-77
2022/07/22 14:14:53;;;;;;;7.25;2.50;;;20.00;99.90;;;;;;5050351;28;20406;-76
2022/07/22 14:17:38;;;;;;;5.07;2.30;;;20.00;99.90;;;;;;5049426;28;20815;-77